Time;durP1;ratioP1;P1;durP2;ratioP2;P2;SDS_P1;SDS_P2;PMS_P1;PMS_P2;Temp;Humidity;BMP_temperature;BMP_pressure;BME280_temperature;BME280_humidity;BME280_pressure;Samples;Min_cycle;Max_cycle;Signal;HPM_P1;HPM_P2
2021/03/06 00:00:52;;;;;;;5.33;3.97;;;;;;;-6.90;98.32;102382.66;5024667;28;20300;-70
2021/03/06 00:03:18;;;;;;;5.77;3.70;;;;;;;-6.92;97.99;102388.47;5048934;28;20683;-72
2021/03/06 00:05:45;;;;;;;5.73;3.10;;;;;;;-6.92;98.09;102391.03;5033616;28;20389;-70
2021/03/06 00:08:11;;;;;;;4.93;3.13;;;;;;;-6.89;99.23;102387.03;5030935;28;20342;-72
2021/03/06 00:10:37;;;;;;;5.57;2.87;;;;;;;-6.92;99.72;102389.34;5050151;28;20509;-72
2021/03/06 00:13:03;;;;;;;3.90;2.53;;;;;;;-6.94;99.34;102392.59;5020176;28;20295;-68
2021/03/06 00:15:30;;;;;;;5.37;2.50;;;;;;;-6.98;99.24;102399.16;5033568;28;20135;-68
2021/03/06 00:17:56;;;;;;;4.57;2.53;;;;;;;-7.00;98.85;102403.28;5031986;28;20287;-68
2021/03/06 00:20:22;;;;;;;4.43;2.93;;;;;;;-7.00;99.39;102394.69;5030122;28;20625;-68
2021/03/06 00:22:50;;;;;;;4.13;2.67;;;;;;;-7.01;97.49;102401.50;5054174;28;20033;-68
2021/03/06 00:25:18;;;;;;;4.60;2.97;;;;;;;-7.02;97.83;102402.28;5040976;28;20291;-68
2021/03/06 00:27:44;;;;;;;3.37;2.33;;;;;;;-7.04;97.66;102405.50;5024344;28;20295;-68
2021/03/06 00:30:13;;;;;;;4.70;2.70;;;;;;;-7.08;97.13;102404.34;5029504;28;20290;-68
2021/03/06 00:32:39;;;;;;;4.43;2.30;;;;;;;-7.05;97.77;102393.44;5028483;28;20641;-68
2021/03/06 00:35:06;;;;;;;4.10;2.40;;;;;;;-7.04;98.37;102395.22;5050677;28;20694;-68
2021/03/06 00:37:33;;;;;;;3.33;2.30;;;;;;;-7.03;99.06;102387.63;5016989;28;20071;-68
2021/03/06 00:39:59;;;;;;;4.43;2.33;;;;;;;-7.06;98.83;102399.31;5023933;28;20041;-68
2021/03/06 00:42:25;;;;;;;3.63;2.07;;;;;;;-7.02;100.00;102385.97;5031716;28;20084;-68
2021/03/06 00:44:51;;;;;;;4.23;2.10;;;;;;;-7.03;99.57;102391.88;5029761;28;20139;-68
2021/03/06 00:47:18;;;;;;;5.87;2.53;;;;;;;-7.07;99.62;102384.69;5048643;28;20036;-68
2021/03/06 00:49:44;;;;;;;4.57;2.27;;;;;;;-7.12;99.51;102381.78;5034487;28;20040;-68
2021/03/06 00:52:11;;;;;;;4.77;2.33;;;;;;;-7.15;98.88;102389.22;5031088;28;20387;-68
2021/03/06 00:54:37;;;;;;;3.17;2.40;;;;;;;-7.18;98.95;102378.72;5072326;23;20170;-90
2021/03/06 00:57:04;;;;;;;4.20;2.47;;;;;;;-7.21;98.98;102375.94;5037865;28;20393;-90
2021/03/06 00:59:30;;;;;;;4.83;2.30;;;;;;;-7.23;98.15;102377.47;5048071;28;20301;-89
2021/03/06 01:01:56;;;;;;;3.83;2.30;;;;;;;-7.25;98.45;102376.47;5014734;28;20692;-89
2021/03/06 01:04:23;;;;;;;4.00;2.30;;;;;;;-7.28;98.61;102373.66;5019915;28;20314;-90
2021/03/06 01:06:58;;;;;;;2.83;2.00;;;;;;;-7.32;98.26;102380.22;5032816;28;20386;-90
2021/03/06 01:09:24;;;;;;;3.97;2.37;;;;;;;-7.31;98.52;102387.16;5042532;28;20291;-90
2021/03/06 01:11:53;;;;;;;2.80;1.87;;;;;;;-7.29;99.34;102382.16;5029138;28;20379;-90
2021/03/06 01:14:19;;;;;;;5.97;2.50;;;;;;;-7.33;99.09;102383.56;5024591;28;20295;-89
2021/03/06 01:16:48;;;;;;;3.33;2.20;;;;;;;-7.37;98.97;102378.97;5043546;28;20317;-91
2021/03/06 01:19:15;;;;;;;3.83;2.00;;;;;;;-7.40;98.75;102384.78;5025680;28;20290;-89
2021/03/06 01:21:41;;;;;;;3.97;2.40;;;;;;;-7.41;98.39;102377.81;5036931;28;20302;-89
2021/03/06 01:24:12;;;;;;;6.23;2.63;;;;;;;-7.41;99.22;102371.78;5030170;28;20294;-89
2021/03/06 01:26:46;;;;;;;3.60;2.20;;;;;;;-7.42;99.25;102370.88;5046242;28;20886;-90
2021/03/06 01:29:13;;;;;;;3.97;2.20;;;;;;;-7.49;98.92;102371.19;5039992;28;20306;-90
2021/03/06 01:31:41;;;;;;;3.43;2.23;;;;;;;-7.52;98.56;102372.63;5053655;28;20295;-90
2021/03/06 01:34:10;;;;;;;4.10;2.60;;;;;;;-7.56;98.59;102358.66;5030079;28;20295;-89
2021/03/06 01:36:36;;;;;;;3.53;2.13;;;;;;;-7.58;98.58;102367.88;5046026;28;20298;-90
2021/03/06 01:39:03;;;;;;;3.70;2.60;;;;;;;-7.60;98.95;102361.75;5038019;28;20290;-90
2021/03/06 01:41:29;;;;;;;4.20;2.40;;;;;;;-7.60;99.05;102363.41;5036717;28;20295;-89
2021/03/06 01:43:56;;;;;;;4.80;2.40;;;;;;;-7.60;98.95;102360.84;5027735;28;20306;-90
2021/03/06 01:47:12;;;;;;;3.57;2.23;;;;;;;-7.62;98.82;102358.16;5047095;28;20813;-90
2021/03/06 01:49:39;;;;;;;3.00;2.00;;;;;;;-7.66;98.26;102343.28;5046621;28;20283;-89
2021/03/06 01:52:05;;;;;;;2.70;2.13;;;;;;;-7.69;98.61;102345.63;5023401;28;20298;-90
2021/03/06 01:54:33;;;;;;;4.03;2.23;;;;;;;-7.72;98.13;102342.81;5028607;28;20386;-90
2021/03/06 01:56:59;;;;;;;4.23;2.40;;;;;;;-7.76;98.48;102344.22;5018094;28;20298;-89
2021/03/06 01:59:26;;;;;;;3.43;2.00;;;;;;;-7.78;98.03;102334.63;5032633;28;20323;-89
2021/03/06 02:01:52;;;;;;;3.63;1.93;;;;;;;-7.79;98.22;102344.00;5053843;28;20373;-90
2021/03/06 02:04:18;;;;;;;4.40;2.13;;;;;;;-7.81;98.59;102337.84;5062206;28;20329;-90
2021/03/06 02:06:44;;;;;;;4.47;2.27;;;;;;;-7.82;98.35;102333.50;5011437;28;20520;-90
2021/03/06 02:09:11;;;;;;;4.03;2.33;;;;;;;-7.86;98.56;102330.53;5015579;28;20856;-89
2021/03/06 02:11:49;;;;;;;2.83;1.70;;;;;;;-7.88;97.92;102334.66;5016959;28;20302;-90
2021/03/06 02:14:40;;;;;;;2.57;2.10;;;;;;;-7.88;98.63;102334.66;5018440;28;20304;-90
2021/03/06 02:17:21;;;;;;;3.07;1.83;;;;;;;-7.92;98.64;102341.19;5035326;28;20302;-89
2021/03/06 02:20:00;;;;;;;3.57;2.07;;;;;;;-7.92;99.25;102338.63;5021469;28;20343;-90
2021/03/06 02:22:48;;;;;;;3.70;1.70;;;;;;;-7.97;98.53;102335.72;5023242;28;20291;-90
2021/03/06 02:25:25;;;;;;;;;;;;;;;-7.97;98.63;102329.69;5037479;28;20301;-90
2021/03/06 02:28:19;;;;;;;2.43;1.77;;;;;;;-7.99;98.52;102334.72;5038400;28;19920;-90
2021/03/06 02:30:47;;;;;;;3.23;2.20;;;;;;;-8.01;98.25;102323.41;5018277;28;20294;-90
2021/03/06 02:33:14;;;;;;;3.23;2.37;;;;;;;-8.03;97.87;102324.97;5026816;28;20294;-90
2021/03/06 02:35:42;;;;;;;4.27;2.00;;;;;;;-8.02;98.33;102325.84;5040416;28;20305;-90
2021/03/06 02:38:14;;;;;;;3.53;2.10;;;;;;;-8.03;98.11;102326.63;5049012;28;20294;-90
2021/03/06 02:40:41;;;;;;;2.63;1.73;;;;;;;-8.05;98.41;102329.06;5026364;28;20365;-89
2021/03/06 02:43:09;;;;;;;3.43;2.00;;;;;;;-8.08;99.27;102331.38;5030527;28;20295;-90
2021/03/06 02:45:38;;;;;;;3.23;1.70;;;;;;;-8.10;99.27;102334.59;5044938;28;20287;-91
2021/03/06 02:48:06;;;;;;;3.60;1.80;;;;;;;-8.11;99.92;102343.94;5040959;28;20297;-91
2021/03/06 02:50:32;;;;;;;3.60;1.97;;;;;;;-8.13;99.59;102347.19;5056661;28;20409;-91
2021/03/06 02:53:05;;;;;;;2.63;1.60;;;;;;;-8.14;99.66;102355.66;5062244;28;20290;-90
2021/03/06 02:55:41;;;;;;;2.80;1.80;;;;;;;-8.16;99.88;102347.81;5060998;28;20282;-90
2021/03/06 02:58:10;;;;;;;3.40;2.00;;;;;;;-8.15;99.63;102352.19;5022667;28;20347;-89
2021/03/06 03:00:52;;;;;;;3.20;1.60;;;;;;;-8.15;99.14;102351.28;5036563;28;20394;-90
2021/03/06 03:03:34;;;;;;;3.97;2.10;;;;;;;-8.18;98.40;102348.47;5024636;28;20326;-90
2021/03/06 03:06:23;;;;;;;3.73;2.03;;;;;;;-8.16;99.50;102341.78;5035781;28;20049;-90
2021/03/06 03:08:59;;;;;;;4.07;2.00;;;;;;;-8.16;99.08;102340.09;5034759;28;20291;-90
2021/03/06 03:11:48;;;;;;;3.77;1.80;;;;;;;-8.16;98.77;102340.09;5023340;28;20294;-89
2021/03/06 03:14:18;;;;;;;2.80;1.70;;;;;;;-8.14;99.50;102342.81;5043370;28;20299;-90
2021/03/06 03:16:51;;;;;;;3.23;1.80;;;;;;;-8.17;98.99;102340.88;5020449;28;20299;-89
2021/03/06 03:19:31;;;;;;;3.47;2.13;;;;;;;-8.19;98.69;102345.00;5044927;28;20302;-90
2021/03/06 03:22:00;;;;;;;3.87;2.00;;;;;;;-8.19;98.90;102350.13;5029148;28;20304;-89
2021/03/06 03:24:30;;;;;;;4.13;1.97;;;;;;;-8.18;99.66;102351.91;5040683;28;20299;-90
2021/03/06 03:27:10;;;;;;;3.97;2.00;;;;;;;-8.16;99.99;102340.09;5021362;28;20298;-89
2021/03/06 03:29:40;;;;;;;2.77;1.67;;;;;;;-8.18;100.00;102344.22;5018131;28;20796;-91
2021/03/06 03:32:10;;;;;;;2.60;1.60;;;;;;;-8.19;100.00;102339.88;5017316;28;20333;-90
2021/03/06 03:34:37;;;;;;;2.27;1.57;;;;;;;-8.19;100.00;102339.88;5021556;28;20341;-91
2021/03/06 03:37:05;;;;;;;3.97;1.80;;;;;;;-8.19;100.00;102347.56;5020227;28;20405;-90
2021/03/06 03:39:37;;;;;;;3.57;1.77;;;;;;;-8.21;100.00;102344.00;5020925;28;20290;-90
2021/03/06 03:42:05;;;;;;;3.80;1.90;;;;;;;-8.25;100.00;102345.38;5020301;28;20398;-89
2021/03/06 03:44:33;;;;;;;3.43;1.70;;;;;;;-8.28;100.00;102346.81;5018254;28;20298;-90
2021/03/06 03:46:59;;;;;;;3.93;1.77;;;;;;;-8.32;100.00;102347.34;5017030;28;20307;-90
2021/03/06 03:49:27;;;;;;;4.40;1.90;;;;;;;-8.34;100.00;102352.31;5027781;28;20453;-90
2021/03/06 03:51:58;;;;;;;3.77;2.10;;;;;;;-8.33;99.70;102355.78;5026226;28;20294;-90
2021/03/06 03:54:24;;;;;;;2.43;1.67;;;;;;;-8.33;99.76;102353.22;5018235;28;20303;-89
2021/03/06 03:56:52;;;;;;;2.37;1.60;;;;;;;-8.34;99.95;102359.13;5031350;28;20295;-90
2021/03/06 03:59:26;;;;;;;3.57;1.87;;;;;;;-8.36;100.00;102353.00;5036222;28;20297;-89
2021/03/06 04:01:52;;;;;;;2.40;1.70;;;;;;;-8.38;100.00;102355.47;5039085;28;20298;-89
2021/03/06 04:04:28;;;;;;;2.63;1.53;;;;;;;-8.38;100.00;102354.56;5020969;28;20047;-89
2021/03/06 04:06:57;;;;;;;3.83;1.70;;;;;;;-8.42;100.00;102353.41;5037815;28;20310;-89
2021/03/06 04:09:24;;;;;;;3.23;1.90;;;;;;;-8.42;100.00;102357.63;5023198;28;20385;-89
2021/03/06 04:11:52;;;;;;;3.67;1.83;;;;;;;-8.39;100.00;102363.03;5035112;28;20334;-90
2021/03/06 04:14:19;;;;;;;3.77;1.93;;;;;;;-8.36;100.00;102359.03;5031258;28;20382;-90
2021/03/06 04:16:47;;;;;;;5.27;2.20;;;;;;;-8.37;100.00;102361.47;5037678;28;20287;-90
2021/03/06 04:19:15;;;;;;;4.30;2.10;;;;;;;-8.40;100.00;102353.53;5021859;28;20298;-90
2021/03/06 04:21:42;;;;;;;3.87;2.03;;;;;;;-8.43;100.00;102356.72;5037131;28;20312;-89
2021/03/06 04:24:08;;;;;;;3.17;2.10;;;;;;;-8.46;100.00;102360.72;5025763;28;20294;-90
2021/03/06 04:26:50;;;;;;;2.80;2.00;;;;;;;-8.49;100.00;102358.81;5046532;28;20352;-89
2021/03/06 04:29:18;;;;;;;2.87;1.80;;;;;;;-8.49;100.00;102361.38;5037374;28;20293;-90
2021/03/06 04:31:44;;;;;;;3.60;1.80;;;;;;;-8.51;100.00;102350.97;5021342;28;20295;-90
2021/03/06 04:34:24;;;;;;;4.40;2.03;;;;;;;-8.51;100.00;102350.97;5020349;28;20385;-89
2021/03/06 04:36:51;;;;;;;4.07;2.03;;;;;;;-8.52;100.00;102350.84;5023962;28;20291;-89
2021/03/06 04:39:17;;;;;;;4.63;2.17;;;;;;;-8.55;100.00;102356.63;5020164;28;20291;-89
2021/03/06 04:41:44;;;;;;;3.77;2.20;;;;;;;-8.57;100.00;102359.84;5022304;28;20298;-90
2021/03/06 04:44:12;;;;;;;2.80;1.90;;;;;;;-8.56;100.00;102353.94;5038371;28;20322;-89
2021/03/06 04:46:38;;;;;;;3.13;2.03;;;;;;;-8.60;100.00;102355.34;5034579;28;20376;-89
2021/03/06 04:49:05;;;;;;;2.97;1.93;;;;;;;-8.54;100.00;102360.97;5042725;28;20338;-89
2021/03/06 04:51:31;;;;;;;4.67;2.10;;;;;;;-8.43;100.00;102361.84;5033471;28;20382;-89
2021/03/06 04:53:58;;;;;;;4.10;2.47;;;;;;;-8.44;100.00;102357.50;5022416;28;20931;-90
2021/03/06 04:56:24;;;;;;;3.30;2.20;;;;;;;-8.52;100.00;102351.75;5024130;28;20294;-90
2021/03/06 04:58:54;;;;;;;5.47;2.80;;;;;;;-8.57;100.00;102347.91;5053518;28;20979;-89
2021/03/06 05:01:20;;;;;;;3.20;1.90;;;;;;;-8.61;100.00;102357.78;5016217;28;20369;-90
2021/03/06 05:03:48;;;;;;;3.63;2.20;;;;;;;-8.59;100.00;102361.34;5020599;28;20299;-89
2021/03/06 05:06:15;;;;;;;3.57;2.00;;;;;;;-8.62;100.00;102367.13;5027983;28;20302;-89
2021/03/06 05:08:41;;;;;;;4.43;2.50;;;;;;;-8.61;100.00;102362.91;5035796;28;20800;-90
2021/03/06 05:11:07;;;;;;;3.83;2.20;;;;;;;-8.60;100.00;102360.47;5036119;28;20291;-89
2021/03/06 05:13:34;;;;;;;4.30;2.70;;;;;;;-8.55;100.00;102348.03;5026432;28;20369;-89
2021/03/06 05:16:01;;;;;;;3.97;2.40;;;;;;;-8.52;100.00;102356.88;5020293;28;20385;-90
2021/03/06 05:18:29;;;;;;;4.57;2.73;;;;;;;-8.48;100.00;102357.13;5035394;28;20286;-90
2021/03/06 05:20:55;;;;;;;4.43;2.27;;;;;;;-8.42;100.00;102360.19;5029701;28;20291;-90
2021/03/06 05:23:21;;;;;;;5.23;2.50;;;;;;;-8.42;100.00;102355.06;5026101;28;20291;-89
2021/03/06 05:25:48;;;;;;;5.67;2.50;;;;;;;-8.41;100.00;102359.41;5018952;28;20309;-90
2021/03/06 05:28:21;;;;;;;4.60;2.60;;;;;;;-8.40;100.00;102362.13;5019504;28;20838;-90
2021/03/06 05:30:51;;;;;;;3.40;2.70;;;;;;;-8.38;100.00;102355.47;5035576;28;21334;-90
2021/03/06 05:33:18;;;;;;;6.03;2.77;;;;;;;-8.38;100.00;102349.44;5020566;28;20291;-90
2021/03/06 05:35:46;;;;;;;4.50;2.43;;;;;;;-8.39;100.00;102360.47;5019403;28;20287;-91
2021/03/06 05:38:16;;;;;;;5.70;2.83;;;;;;;-8.37;100.00;102361.47;5034463;28;20792;-89
2021/03/06 05:40:47;;;;;;;5.60;2.83;;;;;;;-8.31;100.00;102351.69;5019303;28;20301;-90
2021/03/06 05:43:17;;;;;;;4.20;2.60;;;;;;;-8.32;100.00;102345.69;5021663;28;20322;-89
2021/03/06 05:45:46;;;;;;;5.10;2.60;;;;;;;-8.32;100.00;102352.47;5016673;28;20393;-90
2021/03/06 05:48:13;;;;;;;5.27;2.80;;;;;;;-8.30;100.00;102358.63;5029655;28;20668;-90
2021/03/06 05:50:40;;;;;;;4.43;2.80;;;;;;;-8.29;100.00;102353.59;5027459;28;20330;-89
2021/03/06 05:53:33;;;;;;;4.30;2.60;;;;;;;-8.31;100.00;102356.84;5020142;28;20295;-90
2021/03/06 05:56:04;;;;;;;5.43;3.10;;;;;;;-8.29;100.00;102360.41;5021857;28;20363;-89
2021/03/06 05:58:32;;;;;;;3.93;2.53;;;;;;;-8.26;100.00;102363.22;5017894;28;20386;-89
2021/03/06 06:01:01;;;;;;;6.67;3.10;;;;;;;-8.25;100.00;102357.31;5026173;28;20343;-89
2021/03/06 06:03:27;;;;;;;6.17;2.47;;;;;;;-8.25;100.00;102360.75;5034647;28;20381;-90
2021/03/06 06:05:53;;;;;;;5.37;3.37;;;;;;;-8.21;100.00;102361.94;5037033;28;20310;-89
2021/03/06 06:08:20;;;;;;;5.50;2.80;;;;;;;-8.16;100.00;102368.31;5018795;28;20299;-89
2021/03/06 06:10:46;;;;;;;4.17;2.70;;;;;;;-8.13;100.00;102366.03;5021433;28;20302;-91
2021/03/06 06:13:13;;;;;;;3.90;2.53;;;;;;;-8.09;100.00;102365.47;5019649;28;21057;-89
2021/03/06 06:15:39;;;;;;;3.23;2.37;;;;;;;-8.05;100.00;102361.53;5049787;28;20707;-90
2021/03/06 06:18:06;;;;;;;5.97;2.50;;;;;;;-7.97;100.00;102355.34;5019594;28;20302;-90
2021/03/06 06:20:37;;;;;;;5.70;2.90;;;;;;;-7.90;100.00;102359.28;5019448;28;20784;-90
2021/03/06 06:23:14;;;;;;;5.33;3.10;;;;;;;-7.81;100.00;102363.50;5022603;28;20326;-89
2021/03/06 06:25:43;;;;;;;8.00;3.83;;;;;;;-7.75;100.00;102365.63;5034323;28;20294;-89
2021/03/06 06:28:23;;;;;;;5.73;3.23;;;;;;;-7.67;100.00;102377.41;5037664;28;20390;-88
2021/03/06 06:31:11;;;;;;;8.97;5.13;;;;;;;-7.58;100.00;102372.13;5021126;28;20314;-89
2021/03/06 06:33:38;;;;;;;108.27;43.13;;;;;;;-7.50;100.00;102379.66;5051921;28;20302;-89
2021/03/06 06:36:06;;;;;;;76.47;32.83;;;;;;;-7.43;100.00;102379.38;5018316;28;20385;-88
2021/03/06 06:38:41;;;;;;;43.43;19.03;;;;;;;-7.35;100.00;102381.66;5018113;28;20290;-90
2021/03/06 06:41:08;;;;;;;22.37;10.17;;;;;;;-7.27;100.00;102381.47;5018728;28;20298;-89
2021/03/06 06:43:34;;;;;;;14.43;7.33;;;;;;;-7.18;100.00;102384.75;5018753;28;20322;-90
2021/03/06 06:46:00;;;;;;;6.90;3.90;;;;;;;-7.05;100.00;102384.06;5038337;28;20306;-89
2021/03/06 06:48:27;;;;;;;6.63;3.53;;;;;;;-6.95;100.00;102381.41;5021473;28;20338;-89
2021/03/06 06:51:06;;;;;;;7.80;4.33;;;;;;;-6.82;100.00;102383.25;5018538;28;20666;-89
2021/03/06 06:53:32;;;;;;;9.57;5.10;;;;;;;-6.68;100.00;102381.75;5033338;28;20666;-89
2021/03/06 06:55:58;;;;;;;9.93;6.17;;;;;;;-6.49;100.00;102389.16;5041010;28;20302;-89
2021/03/06 06:58:40;;;;;;;10.90;5.37;;;;;;;-6.37;100.00;102395.25;5037190;28;20305;-90
2021/03/06 07:01:32;;;;;;;9.40;4.83;;;;;;;-6.19;100.00;102395.72;5019044;28;20135;-90
2021/03/06 07:04:06;;;;;;;10.00;5.20;;;;;;;-6.10;100.00;102396.41;5018084;28;20404;-89
2021/03/06 07:06:33;;;;;;;8.67;4.90;;;;;;;-5.99;100.00;102404.13;5049503;28;20056;-90
2021/03/06 07:09:04;;;;;;;8.87;4.63;;;;;;;-5.85;100.00;102399.09;5029693;28;20517;-90
2021/03/06 07:11:33;;;;;;;10.73;5.97;;;;;;;-5.70;100.00;102392.47;5013297;28;20297;-89
2021/03/06 07:14:37;;;;;;;9.00;5.17;;;;;;;-5.42;100.00;102377.31;5032167;28;20043;-90
2021/03/06 07:17:04;;;;;;;10.80;6.07;;;;;;;-5.14;100.00;102378.47;5043929;28;20041;-89
2021/03/06 07:19:31;;;;;;;16.00;7.40;;;;;;;-4.77;100.00;102372.44;5017288;28;20495;-90
2021/03/06 07:22:00;;;;;;;12.13;6.23;;;;;;;-4.45;100.00;102366.88;5038424;28;20045;-90
2021/03/06 07:24:28;;;;;;;15.03;6.73;;;;;;;-4.22;100.00;102366.69;5034674;28;20054;-89
2021/03/06 07:26:54;;;;;;;10.33;6.83;;;;;;;-3.70;100.00;102367.53;5015883;28;20082;-90
2021/03/06 07:29:21;;;;;;;9.57;5.80;;;;;;;-2.45;100.00;102372.72;5021588;28;20781;-90
2021/03/06 07:31:51;;;;;;;11.57;5.90;;;;;;;-0.87;93.61;102367.84;5021471;28;20056;-90
2021/03/06 07:34:19;;;;;;;7.40;5.40;;;;;;;0.46;86.67;102364.19;5020295;28;20050;-92
2021/03/06 07:36:46;;;;;;;7.60;4.00;;;;;;;1.53;76.97;102360.41;5032786;28;20044;-91
2021/03/06 07:39:15;;;;;;;7.30;3.67;;;;;;;2.44;72.55;102359.00;5022193;28;20100;-91
2021/03/06 07:41:54;;;;;;;5.57;3.43;;;;;;;2.96;68.00;102365.34;5022513;28;20052;-91
2021/03/06 07:44:23;;;;;;;7.13;3.87;;;;;;;3.39;64.58;102363.50;5034380;28;20041;-91
2021/03/06 07:46:52;;;;;;;12.03;4.97;;;;;;;3.56;63.82;102361.47;5022114;28;20043;-91
2021/03/06 07:49:28;;;;;;;8.67;3.93;;;;;;;4.10;62.91;102355.47;5015357;28;20040;-92
2021/03/06 07:51:58;;;;;;;6.97;4.30;;;;;;;5.33;60.01;102356.63;5031083;28;20045;-91
2021/03/06 07:54:25;;;;;;;7.83;4.70;;;;;;;5.30;56.40;102358.31;5037292;28;20040;-92
2021/03/06 07:56:52;;;;;;;6.00;3.67;;;;;;;5.86;54.97;102358.94;5043126;28;20044;-91
2021/03/06 07:59:49;;;;;;;6.10;3.40;;;;;;;5.99;54.42;102362.81;5025488;28;20036;-92
2021/03/06 08:02:38;;;;;;;5.80;3.33;;;;;;;6.35;52.47;102349.69;5035905;28;20059;-93
2021/03/06 08:05:44;;;;;;;5.10;3.33;;;;;;;8.20;52.19;102354.31;5024445;28;20036;-92
2021/03/06 08:08:32;;;;;;;4.70;3.00;;;;;;;9.06;47.16;102356.47;5032693;28;20059;-92
2021/03/06 08:11:16;;;;;;;8.77;4.53;;;;;;;9.26;45.94;102356.72;5026010;23;20037;-71
2021/03/06 08:13:45;;;;;;;6.85;3.70;;;;;;;9.81;44.66;102352.91;5030510;28;20143;-71
2021/03/06 08:16:20;;;;;;;6.43;3.47;;;;;;;9.92;44.02;102360.97;5012132;28;20107;-71
2021/03/06 08:18:50;;;;;;;6.38;3.72;;;;;;;9.98;45.08;102350.44;5051697;28;20049;-71
2021/03/06 08:21:35;;;;;;;4.97;2.80;;;;;;;10.02;43.58;102354.91;5047394;28;20093;-71
2021/03/06 08:24:11;;;;;;;4.97;2.67;;;;;;;10.16;44.65;102350.59;5032354;28;20145;-71
2021/03/06 08:26:58;;;;;;;4.78;3.05;;;;;;;10.65;45.55;102356.28;5043886;28;20048;-71
2021/03/06 08:29:50;;;;;;;5.95;3.08;;;;;;;11.18;42.45;102354.78;5039613;28;20045;-71
2021/03/06 08:32:31;;;;;;;5.57;3.10;;;;;;;12.26;40.19;102357.66;5018721;28;20604;-71
2021/03/06 08:35:00;;;;;;;4.65;2.50;;;;;;;11.57;41.73;102354.03;5023935;28;20053;-71
2021/03/06 08:37:26;;;;;;;4.10;2.72;;;;;;;11.99;39.80;102353.25;5024426;28;20038;-71
2021/03/06 08:39:57;;;;;;;3.22;2.17;;;;;;;12.60;42.36;102347.03;5043753;28;20120;-70
2021/03/06 08:42:29;;;;;;;10.32;3.17;;;;;;;11.60;38.80;102354.03;5040015;28;20069;-71
2021/03/06 08:44:58;;;;;;;5.30;2.47;;;;;;;10.50;42.24;102355.28;5023068;28;20107;-72
2021/03/06 08:47:29;;;;;;;5.60;2.35;;;;;;;10.15;41.62;102350.59;5040093;28;20095;-71
2021/03/06 08:49:57;;;;;;;4.32;2.17;;;;;;;9.18;44.30;102361.03;5011508;28;20058;-70
2021/03/06 08:52:27;;;;;;;6.15;2.50;;;;;;;9.39;45.85;102353.34;5028907;28;20039;-70
2021/03/06 08:54:54;;;;;;;3.92;2.50;;;;;;;10.84;41.21;102354.63;5010383;28;20250;-70
2021/03/06 08:57:30;;;;;;;4.53;2.10;;;;;;;11.51;43.14;102352.25;5046737;28;20107;-70
2021/03/06 09:00:17;;;;;;;4.55;2.10;;;;;;;12.20;40.90;102351.50;5015389;28;20032;-70
2021/03/06 09:02:43;;;;;;;3.42;2.03;;;;;;;12.89;39.19;102353.16;5021443;28;20041;-70
2021/03/06 09:05:14;;;;;;;7.53;2.55;;;;;;;12.60;38.79;102352.31;5010470;28;20041;-70
2021/03/06 09:07:45;;;;;;;2.97;1.92;;;;;;;12.29;38.97;102346.19;5022851;28;20675;-70
2021/03/06 09:10:22;;;;;;;3.67;2.10;;;;;;;10.54;41.75;102347.41;5046066;28;20039;-70
2021/03/06 09:12:51;;;;;;;4.88;2.33;;;;;;;9.17;44.15;102361.91;5043487;28;20197;-70
2021/03/06 09:15:33;;;;;;;3.95;1.80;;;;;;;8.01;47.22;102350.47;5012303;28;20060;-70
2021/03/06 09:18:00;;;;;;;3.83;2.22;;;;;;;6.98;51.11;102358.16;5027884;28;20730;-71
2021/03/06 09:20:28;;;;;;;5.03;2.40;;;;;;;6.36;53.04;102364.59;5009072;28;20029;-75
2021/03/06 09:22:54;;;;;;;3.70;2.30;;;;;;;6.06;54.47;102362.13;5029085;28;20037;-72
2021/03/06 09:25:48;;;;;;;6.17;2.33;;;;;;;5.80;56.70;102361.38;5028246;28;20743;-74
2021/03/06 09:28:21;;;;;;;7.43;2.60;;;;;;;5.56;57.34;102361.63;5023972;28;20044;-73
2021/03/06 09:30:47;;;;;;;4.90;1.90;;;;;;;5.54;58.20;102361.56;5046436;28;20046;-73
2021/03/06 09:33:35;;;;;;;4.57;1.97;;;;;;;5.62;57.51;102360.03;5023362;28;20037;-74
2021/03/06 09:36:07;;;;;;;3.37;1.97;;;;;;;4.63;60.98;102364.16;5022355;28;20044;-75
2021/03/06 09:38:55;;;;;;;4.30;2.65;;;;;;;4.04;63.10;102366.63;5011811;28;20087;-76
2021/03/06 09:41:30;;;;;;;4.10;2.47;;;;;;;3.54;65.35;102370.09;5027284;28;20041;-73
2021/03/06 09:43:58;;;;;;;4.97;2.57;;;;;;;3.36;66.39;102371.22;5021328;28;20571;-73
2021/03/06 09:46:30;;;;;;;5.20;2.87;;;;;;;3.39;66.45;102375.66;5027291;28;20560;-72
2021/03/06 09:49:22;;;;;;;4.97;2.40;;;;;;;3.47;67.28;102362.88;5042043;28;20052;-75
2021/03/06 09:51:51;;;;;;;6.70;3.73;;;;;;;3.88;66.37;102362.59;5030930;28;20051;-74
2021/03/06 09:54:20;;;;;;;3.47;2.10;;;;;;;4.14;64.73;102365.19;5026921;28;20299;-72
2021/03/06 09:56:48;;;;;;;8.87;3.03;;;;;;;4.28;64.96;102363.00;5007786;28;20779;-72
2021/03/06 09:59:15;;;;;;;6.20;2.40;;;;;;;4.31;63.88;102360.50;5045102;28;20037;-72
2021/03/06 10:01:41;;;;;;;5.30;2.60;;;;;;;4.34;63.95;102369.34;5026487;28;20382;-73
2021/03/06 10:04:21;;;;;;;4.57;2.27;;;;;;;4.15;65.07;102378.31;5040077;28;20421;-75
2021/03/06 10:06:49;;;;;;;6.57;3.27;;;;;;;3.92;65.24;102377.53;5025059;28;20724;-74
2021/03/06 10:09:17;;;;;;;7.00;3.20;;;;;;;3.45;66.51;102369.75;5020326;28;20051;-73
2021/03/06 10:11:49;;;;;;;5.47;3.30;;;;;;;3.49;67.63;102371.66;5029924;28;20049;-72
2021/03/06 10:14:20;;;;;;;5.47;3.40;;;;;;;3.74;67.06;102363.84;5045509;28;20421;-72
2021/03/06 10:16:54;;;;;;;6.60;3.50;;;;;;;4.01;66.50;102361.28;5010989;28;20045;-74
2021/03/06 10:19:22;;;;;;;6.43;3.50;;;;;;;4.11;69.04;102368.56;5011540;28;20421;-74
2021/03/06 10:21:58;;;;;;;6.23;3.30;;;;;;;4.13;68.59;102361.69;5025594;28;20482;-72
2021/03/06 10:24:24;;;;;;;5.07;2.67;;;;;;;4.30;67.71;102363.97;5044555;28;20052;-75
2021/03/06 10:26:55;;;;;;;4.27;2.97;;;;;;;4.66;69.05;102359.00;5001644;28;20049;-73
2021/03/06 10:29:23;;;;;;;6.83;2.97;;;;;;;4.62;67.60;102362.34;5008881;28;20025;-73
2021/03/06 10:32:03;;;;;;;6.13;2.67;;;;;;;4.42;68.03;102359.13;5007364;28;20104;-75
2021/03/06 10:34:49;;;;;;;5.77;3.53;;;;;;;4.25;69.39;102358.59;5006159;28;20040;-74
2021/03/06 10:37:17;;;;;;;5.50;3.00;;;;;;;3.91;71.02;102362.69;5025026;28;20079;-72
2021/03/06 10:40:02;;;;;;;5.70;3.13;;;;;;;3.92;71.09;102360.97;5001501;28;20445;-73
2021/03/06 10:42:42;;;;;;;8.20;2.90;;;;;;;3.48;73.27;102362.94;5024925;28;20476;-73
2021/03/06 10:45:10;;;;;;;6.57;3.20;;;;;;;3.72;72.63;102364.63;5022024;28;20399;-73
2021/03/06 10:47:47;;;;;;;7.27;2.77;;;;;;;3.70;73.50;102382.88;5009742;28;20481;-75
2021/03/06 10:50:40;;;;;;;7.13;3.27;;;;;;;3.22;74.08;102371.56;5021801;28;20041;-74
2021/03/06 10:53:32;;;;;;;6.40;3.27;;;;;;;3.43;73.89;102371.44;5025226;28;20095;-73
2021/03/06 10:55:59;;;;;;;4.33;2.57;;;;;;;3.42;74.45;102365.31;5008770;28;20057;-73
2021/03/06 10:58:42;;;;;;;5.53;2.83;;;;;;;3.51;74.16;102365.63;5013818;28;20379;-71
2021/03/06 11:01:24;;;;;;;5.23;3.03;;;;;;;3.46;73.96;102358.50;4995199;28;20615;-73
2021/03/06 11:03:51;;;;;;;6.50;3.23;;;;;;;3.53;73.49;102353.53;5013942;28;20494;-74
2021/03/06 11:06:18;;;;;;;6.93;2.83;;;;;;;3.84;72.44;102359.81;5007125;28;20506;-72
2021/03/06 11:09:17;;;;;;;5.00;2.77;;;;;;;3.88;73.51;102353.88;5005797;28;20068;-75
2021/03/06 11:11:48;;;;;;;4.43;2.20;;;;;;;3.57;73.90;102360.63;5001849;28;20184;-73
2021/03/06 11:14:27;;;;;;;4.93;2.93;;;;;;;3.31;76.59;102362.31;5031160;28;20036;-73
2021/03/06 11:16:54;;;;;;;5.40;3.47;;;;;;;3.16;77.64;102369.59;5042504;28;20060;-74
2021/03/06 11:19:21;;;;;;;8.90;3.30;;;;;;;3.18;77.20;102367.91;5028548;28;20100;-73
2021/03/06 11:21:47;;;;;;;5.23;3.33;;;;;;;3.12;76.68;102359.88;5017112;28;20051;-73
2021/03/06 11:24:14;;;;;;;6.87;3.30;;;;;;;2.85;78.33;102364.94;5028978;28;20044;-75
2021/03/06 11:26:40;;;;;;;5.50;3.33;;;;;;;2.95;78.42;102364.47;5008527;28;20052;-72
2021/03/06 11:29:06;;;;;;;8.00;4.13;;;;;;;2.90;77.85;102358.19;5014423;28;20528;-73
2021/03/06 11:31:51;;;;;;;8.43;4.00;;;;;;;3.26;77.01;102357.75;5020769;28;20044;-72
2021/03/06 11:34:17;;;;;;;10.27;5.97;;;;;;;3.17;77.19;102355.69;5020566;28;20844;-74
2021/03/06 11:36:43;;;;;;;5.20;3.77;;;;;;;3.15;77.28;102352.16;5044951;28;20033;-73
2021/03/06 11:39:10;;;;;;;5.27;3.47;;;;;;;2.98;77.83;102355.84;4998181;28;20040;-75
2021/03/06 11:41:36;;;;;;;6.50;3.03;;;;;;;3.06;77.14;102347.47;5024421;28;20037;-70
2021/03/06 11:44:02;;;;;;;4.97;3.07;;;;;;;2.94;77.21;102335.66;5047317;28;20128;-70